createdAt,value
2019-03-10T00:00:32.216Z,9.60
2019-03-10T00:03:01.484Z,9.57
2019-03-10T00:05:30.686Z,9.57
2019-03-10T00:08:00.506Z,9.64
2019-03-10T00:10:29.692Z,9.64
2019-03-10T00:12:59.084Z,9.51
2019-03-10T00:15:28.213Z,9.51
2019-03-10T00:17:57.485Z,9.48
2019-03-10T00:20:26.758Z,9.48
2019-03-10T00:22:56.009Z,9.45
2019-03-10T00:25:25.193Z,9.56
2019-03-10T00:27:54.503Z,9.63
2019-03-10T00:30:23.913Z,9.52
2019-03-10T00:32:53.079Z,9.51
2019-03-10T00:35:22.254Z,9.51
2019-03-10T00:37:51.434Z,9.60
2019-03-10T00:40:46.253Z,9.69
2019-03-10T00:43:50.542Z,9.69
2019-03-10T00:46:45.760Z,9.69
2019-03-10T00:49:33.311Z,9.69
2019-03-10T00:52:07.755Z,9.66
2019-03-10T00:54:36.950Z,9.75
2019-03-10T00:57:06.133Z,9.79
2019-03-10T00:59:35.302Z,9.82
2019-03-10T01:02:04.573Z,9.76
2019-03-10T01:04:33.761Z,9.82
2019-03-10T01:07:02.998Z,9.91
2019-03-10T01:09:32.176Z,9.94
2019-03-10T01:12:02.935Z,9.94
2019-03-10T01:14:32.728Z,9.82
2019-03-10T01:17:03.759Z,9.87
2019-03-10T01:19:33.483Z,9.78
2019-03-10T01:22:02.743Z,9.78
2019-03-10T01:24:31.919Z,9.87
2019-03-10T01:27:01.967Z,9.70
2019-03-10T01:29:31.151Z,9.70
2019-03-10T01:32:24.381Z,9.73
2019-03-10T01:35:05.109Z,9.73
2019-03-10T01:37:34.302Z,9.41
2019-03-10T01:40:03.969Z,9.22
2019-03-10T01:42:33.166Z,9.22
2019-03-10T01:45:02.344Z,9.29
2019-03-10T01:47:31.539Z,9.34
2019-03-10T01:50:00.726Z,9.20
2019-03-10T01:52:29.911Z,9.09
2019-03-10T01:54:59.113Z,9.09
2019-03-10T01:57:28.286Z,8.94
2019-03-10T01:59:57.449Z,8.99
2019-03-10T02:02:26.933Z,8.93
2019-03-10T02:04:56.111Z,8.91
2019-03-10T02:07:25.343Z,8.93
2019-03-10T02:09:54.485Z,9.03
2019-03-10T02:12:23.667Z,8.87
2019-03-10T02:14:52.865Z,8.97
2019-03-10T02:17:22.043Z,8.94
2019-03-10T02:19:51.267Z,8.93
2019-03-10T02:22:20.463Z,8.96
2019-03-10T02:24:49.639Z,8.85
2019-03-10T02:27:36.521Z,8.86
2019-03-10T02:30:14.921Z,8.80
2019-03-10T02:32:44.101Z,8.76
2019-03-10T02:35:13.349Z,8.62
2019-03-10T02:37:42.616Z,8.54
2019-03-10T02:40:12.345Z,8.62
2019-03-10T02:42:41.670Z,8.47
2019-03-10T02:45:11.379Z,8.46
2019-03-10T02:47:40.560Z,8.46
2019-03-10T02:50:10.708Z,8.40
2019-03-10T02:52:39.918Z,8.27
2019-03-10T02:55:09.425Z,8.16
2019-03-10T02:57:38.612Z,8.19
2019-03-10T03:00:10.726Z,8.38
2019-03-10T03:02:39.929Z,8.34
2019-03-10T03:05:10.717Z,8.20
2019-03-10T03:07:39.924Z,8.09
2019-03-10T03:10:13.769Z,8.07
2019-03-10T03:12:42.961Z,8.08
2019-03-10T03:15:12.277Z,8.05
2019-03-10T03:17:41.526Z,7.95
2019-03-10T03:20:12.438Z,8.03
2019-03-10T03:22:41.726Z,7.98
2019-03-10T03:25:12.169Z,8.01
2019-03-10T03:27:41.679Z,7.82
2019-03-10T03:30:16.015Z,7.77
2019-03-10T03:32:45.257Z,7.94
2019-03-10T03:35:46.878Z,7.78
2019-03-10T03:38:36.881Z,7.85
2019-03-10T03:41:20.102Z,7.79
2019-03-10T03:43:49.293Z,8.05
2019-03-10T03:46:18.463Z,8.09
2019-03-10T03:48:47.665Z,7.85
2019-03-10T03:51:16.891Z,7.60
2019-03-10T03:53:46.067Z,7.49
2019-03-10T03:56:17.668Z,7.53
2019-03-10T03:58:46.842Z,7.47
2019-03-10T04:01:20.132Z,7.32
2019-03-10T04:03:49.296Z,7.31
2019-03-10T04:06:18.488Z,7.24
2019-03-10T04:08:49.877Z,7.38
2019-03-10T04:11:19.054Z,7.32
2019-03-10T04:13:48.157Z,7.30
2019-03-10T04:16:17.337Z,7.23
2019-03-10T04:18:46.509Z,7.14
2019-03-10T04:21:15.701Z,7.07
2019-03-10T04:23:44.888Z,6.93
2019-03-10T04:26:14.053Z,7.02
2019-03-10T04:28:43.248Z,7.06
2019-03-10T04:31:12.449Z,7.08
2019-03-10T04:33:41.806Z,7.13
2019-03-10T04:36:10.995Z,6.94
2019-03-10T04:38:40.252Z,6.84
2019-03-10T04:41:09.408Z,6.85
2019-03-10T04:43:38.581Z,6.82
2019-03-10T04:46:07.794Z,6.74
2019-03-10T04:48:36.969Z,6.70
2019-03-10T04:51:06.146Z,6.78
2019-03-10T04:53:35.326Z,6.65
2019-03-10T04:56:11.885Z,6.65
2019-03-10T04:58:42.719Z,6.68
2019-03-10T05:01:15.849Z,6.60
2019-03-10T05:03:45.067Z,6.64
2019-03-10T05:06:14.252Z,6.62
2019-03-10T05:08:43.425Z,6.43
2019-03-10T05:11:12.608Z,6.43
2019-03-10T05:13:41.791Z,6.57
2019-03-10T05:16:10.985Z,6.73
2019-03-10T05:18:40.165Z,6.82
2019-03-10T05:21:09.259Z,6.93
2019-03-10T05:23:40.182Z,6.86
2019-03-10T05:26:09.625Z,6.84
2019-03-10T05:28:41.847Z,6.75
2019-03-10T05:31:11.048Z,6.78
2019-03-10T05:33:40.225Z,6.99
2019-03-10T05:36:09.401Z,6.78
2019-03-10T05:38:38.581Z,6.64
2019-03-10T05:41:07.786Z,6.76
2019-03-10T05:43:36.973Z,6.78
2019-03-10T05:46:06.210Z,6.87
2019-03-10T05:48:35.381Z,6.92
2019-03-10T05:51:04.596Z,6.59
2019-03-10T05:53:33.795Z,6.67
2019-03-10T05:56:02.981Z,6.55
2019-03-10T05:58:32.145Z,6.50
2019-03-10T06:01:01.312Z,6.58
2019-03-10T06:03:30.499Z,6.53
2019-03-10T06:05:59.780Z,6.64
2019-03-10T06:08:28.950Z,6.81
2019-03-10T06:10:58.136Z,6.88
2019-03-10T06:13:27.429Z,6.73
2019-03-10T06:15:56.703Z,6.70
2019-03-10T06:18:25.886Z,6.71
2019-03-10T06:20:55.089Z,6.58
2019-03-10T06:23:24.259Z,6.62
2019-03-10T06:25:53.431Z,6.50
2019-03-10T06:28:22.601Z,6.48
2019-03-10T06:30:51.781Z,6.40
2019-03-10T06:33:20.983Z,6.38
2019-03-10T06:35:50.212Z,6.32
2019-03-10T06:38:19.407Z,6.29
2019-03-10T06:40:48.511Z,6.40
2019-03-10T06:43:17.697Z,6.46
2019-03-10T06:45:46.876Z,6.61
2019-03-10T06:48:16.045Z,6.53
2019-03-10T06:50:45.246Z,6.44
2019-03-10T06:53:14.434Z,6.36
2019-03-10T06:55:43.639Z,6.40
2019-03-10T06:58:12.823Z,6.36
2019-03-10T07:00:41.993Z,6.44
2019-03-10T07:03:11.194Z,6.37
2019-03-10T07:05:40.374Z,6.37
2019-03-10T07:08:09.563Z,6.41
2019-03-10T07:10:38.728Z,6.45
2019-03-10T07:13:07.930Z,6.33
2019-03-10T07:15:37.118Z,6.33
2019-03-10T07:18:06.288Z,6.47
2019-03-10T07:20:35.486Z,6.37
2019-03-10T07:23:06.296Z,6.41
2019-03-10T07:25:35.454Z,6.27
2019-03-10T07:28:15.099Z,6.26
2019-03-10T07:30:48.847Z,6.37
2019-03-10T07:33:31.960Z,6.33
2019-03-10T07:36:12.066Z,6.46
2019-03-10T07:38:57.840Z,6.31
2019-03-10T07:41:28.658Z,6.39
2019-03-10T07:44:15.781Z,6.39
2019-03-10T07:46:49.462Z,6.29
2019-03-10T07:49:32.140Z,6.42
2019-03-10T07:52:05.918Z,6.54
2019-03-10T07:54:36.728Z,6.54
2019-03-10T07:57:22.582Z,6.45
2019-03-10T07:59:53.411Z,6.42
2019-03-10T08:02:42.319Z,6.48
2019-03-10T08:05:37.206Z,6.49
2019-03-10T08:08:08.016Z,6.36
2019-03-10T08:10:51.062Z,6.28
2019-03-10T08:13:37.990Z,6.24
2019-03-10T08:16:24.831Z,6.34
2019-03-10T08:19:01.108Z,6.28
2019-03-10T08:21:40.830Z,6.32
2019-03-10T08:24:11.656Z,6.37
2019-03-10T08:27:00.751Z,6.43
2019-03-10T08:29:31.556Z,6.40
2019-03-10T08:32:02.378Z,6.54
2019-03-10T08:34:49.306Z,6.52
2019-03-10T08:37:36.610Z,6.52
2019-03-10T08:40:19.781Z,6.53
2019-03-10T08:43:07.039Z,6.39
2019-03-10T08:45:37.838Z,6.46
2019-03-10T08:48:08.648Z,6.41
2019-03-10T08:50:42.479Z,6.47
2019-03-10T08:53:13.305Z,6.40
2019-03-10T08:55:58.913Z,6.24
2019-03-10T08:58:29.832Z,6.29
2019-03-10T09:01:00.678Z,6.20
2019-03-10T09:03:31.495Z,6.27
2019-03-10T09:06:14.332Z,6.28
2019-03-10T09:08:57.176Z,6.35
2019-03-10T09:11:30.988Z,6.31
2019-03-10T09:14:01.836Z,6.33
2019-03-10T09:16:48.911Z,6.25
2019-03-10T09:19:25.214Z,6.36
2019-03-10T09:22:01.947Z,6.46
2019-03-10T09:24:48.944Z,6.45
2019-03-10T09:27:22.737Z,6.50
2019-03-10T09:30:09.750Z,6.55
2019-03-10T09:32:52.656Z,6.59
2019-03-10T09:35:38.251Z,6.70
2019-03-10T09:38:15.019Z,6.67
2019-03-10T09:40:48.730Z,6.83
2019-03-10T09:43:19.557Z,7.00
2019-03-10T09:45:50.298Z,7.00
2019-03-10T09:48:29.920Z,7.19
2019-03-10T09:51:09.663Z,7.32
2019-03-10T09:53:40.492Z,7.55
2019-03-10T09:56:17.284Z,7.69
2019-03-10T09:58:57.189Z,7.85
2019-03-10T10:01:42.966Z,8.05
2019-03-10T10:04:16.714Z,8.30
2019-03-10T10:06:53.315Z,8.47
2019-03-10T10:09:24.149Z,8.91
2019-03-10T10:12:00.591Z,9.12
2019-03-10T10:14:31.418Z,9.62
2019-03-10T10:17:07.989Z,9.86
2019-03-10T10:19:47.644Z,9.94
2019-03-10T10:22:23.990Z,10.22
2019-03-10T10:25:03.792Z,10.22
2019-03-10T10:27:37.240Z,10.20
2019-03-10T10:30:29.534Z,10.21
2019-03-10T10:33:00.359Z,10.21
2019-03-10T10:35:37.017Z,10.19
2019-03-10T10:38:18.675Z,10.20
2019-03-10T10:40:59.895Z,10.17
2019-03-10T10:43:39.720Z,10.08
2019-03-10T10:46:16.923Z,10.12
2019-03-10T10:48:50.583Z,10.13
2019-03-10T10:51:29.715Z,10.21
2019-03-10T10:54:00.123Z,10.21
2019-03-10T10:56:30.972Z,10.30
2019-03-10T10:59:07.726Z,10.30
2019-03-10T11:01:41.039Z,10.49
2019-03-10T11:04:17.738Z,10.67
2019-03-10T11:07:06.121Z,10.67
2019-03-10T11:09:43.193Z,10.79
2019-03-10T11:12:19.855Z,10.84
2019-03-10T11:14:53.847Z,10.93
2019-03-10T11:17:42.945Z,10.93
2019-03-10T11:20:13.855Z,10.93
2019-03-10T11:22:47.610Z,10.95
2019-03-10T11:25:24.343Z,10.93
2019-03-10T11:27:55.179Z,10.85
2019-03-10T11:30:42.591Z,10.88
2019-03-10T11:33:22.247Z,10.88
2019-03-10T11:35:53.666Z,10.87
2019-03-10T11:38:42.902Z,10.65
2019-03-10T11:41:16.716Z,10.65
2019-03-10T11:44:17.044Z,10.58
2019-03-10T11:46:48.142Z,10.55
2019-03-10T11:49:22.535Z,10.55
2019-03-10T11:52:02.100Z,10.55
2019-03-10T11:54:36.977Z,10.57
2019-03-10T11:57:16.779Z,10.57
2019-03-10T11:59:50.471Z,10.44
2019-03-10T12:02:26.973Z,10.32
2019-03-10T12:05:00.598Z,10.30
2019-03-10T12:08:05.005Z,10.20
2019-03-10T12:10:34.205Z,10.20
2019-03-10T12:13:03.387Z,10.19
2019-03-10T12:15:32.568Z,10.18
2019-03-10T12:18:01.750Z,10.15
2019-03-10T12:20:30.938Z,9.92
2019-03-10T12:23:00.203Z,9.92
2019-03-10T12:25:29.440Z,9.84
2019-03-10T12:27:58.613Z,9.57
2019-03-10T12:30:27.777Z,9.57
2019-03-10T12:32:56.968Z,9.58
2019-03-10T12:35:34.036Z,9.51
2019-03-10T12:37:57.037Z,9.48
2019-03-10T12:40:26.272Z,9.47
2019-03-10T12:42:55.441Z,9.32
2019-03-10T12:45:24.628Z,9.40
2019-03-10T12:47:53.854Z,9.52
2019-03-10T12:50:23.159Z,9.58
2019-03-10T12:52:52.344Z,9.60
2019-03-10T12:55:21.511Z,9.68
2019-03-10T12:57:50.696Z,9.72
2019-03-10T13:00:19.952Z,9.65
2019-03-10T13:02:49.238Z,9.90
2019-03-10T13:05:18.414Z,9.90
2019-03-10T13:07:47.603Z,9.84
2019-03-10T13:10:16.775Z,9.84
2019-03-10T13:12:45.977Z,9.82
2019-03-10T13:15:15.256Z,9.88
2019-03-10T13:17:44.424Z,9.88
2019-03-10T13:20:13.832Z,9.78
2019-03-10T13:22:43.171Z,9.76
2019-03-10T13:25:13.314Z,9.68
2019-03-10T13:27:42.577Z,9.68
2019-03-10T13:30:14.559Z,9.57
2019-03-10T13:32:44.661Z,9.47
2019-03-10T13:35:14.339Z,9.00
2019-03-10T13:37:43.596Z,8.74
2019-03-10T13:40:14.667Z,8.39
2019-03-10T13:43:01.848Z,8.13
2019-03-10T13:45:31.054Z,7.96
2019-03-10T13:48:00.272Z,7.84
2019-03-10T13:50:29.474Z,7.50
2019-03-10T13:52:58.647Z,7.26
2019-03-10T13:55:27.831Z,7.22
2019-03-10T13:57:57.023Z,7.19
2019-03-10T14:00:26.835Z,7.30
2019-03-10T14:02:56.107Z,7.14
2019-03-10T14:05:25.456Z,7.24
2019-03-10T14:07:54.649Z,7.02
2019-03-10T14:10:23.822Z,7.04
2019-03-10T14:12:53.077Z,6.97
2019-03-10T14:15:22.345Z,6.86
2019-03-10T14:17:51.540Z,6.94
2019-03-10T14:20:20.874Z,6.94
2019-03-10T14:22:50.038Z,6.88
2019-03-10T14:25:19.294Z,6.96
2019-03-10T14:27:48.488Z,6.96
2019-03-10T14:30:18.804Z,6.83
2019-03-10T14:32:48.238Z,6.74
2019-03-10T14:35:17.777Z,6.63
2019-03-10T14:37:46.962Z,6.48
2019-03-10T14:40:17.686Z,6.38
2019-03-10T14:42:46.896Z,6.36
2019-03-10T14:45:17.621Z,6.41
2019-03-10T14:47:46.983Z,6.43
2019-03-10T14:50:19.680Z,6.47
2019-03-10T14:52:48.941Z,6.59
2019-03-10T14:55:19.572Z,6.61
2019-03-10T14:57:48.773Z,6.48
2019-03-10T15:00:28.613Z,6.49
2019-03-10T15:02:57.812Z,6.56
2019-03-10T15:05:27.009Z,6.59
2019-03-10T15:07:56.171Z,6.61
2019-03-10T15:10:25.355Z,6.70
2019-03-10T15:12:54.535Z,6.84
2019-03-10T15:15:23.848Z,6.68
2019-03-10T15:17:53.908Z,6.73
2019-03-10T15:20:23.150Z,6.76
2019-03-10T15:22:52.344Z,6.70
2019-03-10T15:25:24.943Z,6.68
2019-03-10T15:27:53.626Z,6.71
2019-03-10T15:30:24.360Z,6.69
2019-03-10T15:32:53.679Z,6.77
2019-03-10T15:35:22.975Z,6.66
2019-03-10T15:37:52.153Z,6.50
2019-03-10T15:40:21.378Z,6.42
2019-03-10T15:42:50.552Z,6.62
2019-03-10T15:45:20.049Z,6.52
2019-03-10T15:47:49.235Z,6.63
2019-03-10T15:50:26.485Z,6.63
2019-03-10T15:52:55.774Z,6.73
2019-03-10T15:55:24.937Z,6.78
2019-03-10T15:57:54.184Z,6.75
2019-03-10T16:00:28.177Z,6.70
2019-03-10T16:02:57.458Z,6.85
2019-03-10T16:05:26.964Z,6.74
2019-03-10T16:07:56.210Z,6.63
2019-03-10T16:10:25.396Z,6.71
2019-03-10T16:12:54.561Z,6.81
2019-03-10T16:15:25.888Z,6.84
2019-03-10T16:17:55.210Z,6.83
2019-03-10T16:20:24.390Z,7.00
2019-03-10T16:22:55.346Z,7.02
2019-03-10T16:25:24.431Z,6.92
2019-03-10T16:27:53.624Z,6.99
2019-03-10T16:30:25.215Z,7.06
2019-03-10T16:32:54.470Z,7.10
2019-03-10T16:35:23.706Z,7.13
2019-03-10T16:37:52.913Z,7.09
2019-03-10T16:40:22.902Z,6.93
2019-03-10T16:42:52.081Z,7.06
2019-03-10T16:45:22.187Z,6.78
2019-03-10T16:47:51.351Z,6.91
2019-03-10T16:50:24.702Z,6.78
2019-03-10T16:52:53.926Z,6.61
2019-03-10T16:55:23.091Z,6.45
2019-03-10T16:57:52.377Z,6.23
2019-03-10T17:00:21.773Z,6.16
2019-03-10T17:03:09.208Z,6.13
2019-03-10T17:05:38.455Z,6.21
2019-03-10T17:08:07.622Z,6.20
2019-03-10T17:10:36.786Z,6.19
2019-03-10T17:13:05.978Z,6.26
2019-03-10T17:15:35.208Z,6.33
2019-03-10T17:18:04.473Z,6.31
2019-03-10T17:20:33.652Z,6.32
2019-03-10T17:23:02.820Z,6.41
2019-03-10T17:25:31.993Z,6.37
2019-03-10T17:28:01.168Z,6.30
2019-03-10T17:30:30.368Z,6.33
2019-03-10T17:32:59.525Z,6.32
2019-03-10T17:35:28.698Z,6.42
2019-03-10T17:37:57.870Z,6.37
2019-03-10T17:40:27.052Z,6.50
2019-03-10T17:43:14.339Z,6.52
2019-03-10T17:45:43.587Z,6.48
2019-03-10T17:48:13.242Z,6.57
2019-03-10T17:50:42.618Z,6.60
2019-03-10T17:53:11.851Z,6.65
2019-03-10T17:55:41.038Z,6.56
2019-03-10T17:58:10.255Z,6.51
2019-03-10T18:00:40.301Z,6.56
2019-03-10T18:03:09.469Z,6.59
2019-03-10T18:05:38.679Z,6.67
2019-03-10T18:08:07.930Z,6.83
2019-03-10T18:10:37.119Z,6.86
2019-03-10T18:13:06.640Z,6.73
2019-03-10T18:15:35.840Z,6.84
2019-03-10T18:18:05.113Z,6.52
2019-03-10T18:20:34.287Z,6.26
2019-03-10T18:23:03.471Z,6.39
2019-03-10T18:25:32.649Z,6.44
2019-03-10T18:28:02.393Z,6.29
2019-03-10T18:30:31.567Z,6.47
2019-03-10T18:33:00.737Z,6.59
2019-03-10T18:35:29.983Z,6.56
2019-03-10T18:37:59.177Z,6.62
2019-03-10T18:40:28.995Z,6.56
2019-03-10T18:42:58.258Z,6.59
2019-03-10T18:45:27.429Z,6.69
2019-03-10T18:47:56.618Z,6.66
2019-03-10T18:50:27.599Z,6.72
2019-03-10T18:52:56.766Z,6.71
2019-03-10T18:55:25.957Z,6.68
2019-03-10T18:57:55.133Z,6.71
2019-03-10T19:00:25.638Z,6.72
2019-03-10T19:02:54.898Z,6.70
2019-03-10T19:05:24.079Z,6.73
2019-03-10T19:07:53.334Z,6.83
2019-03-10T19:10:22.513Z,6.83
2019-03-10T19:12:51.695Z,6.85
2019-03-10T19:15:25.134Z,6.85
2019-03-10T19:17:54.617Z,6.92
2019-03-10T19:20:23.852Z,6.86
2019-03-10T19:22:53.043Z,6.86
2019-03-10T19:25:22.214Z,6.95
2019-03-10T19:27:51.390Z,6.99
2019-03-10T19:30:22.447Z,7.02
2019-03-10T19:32:51.703Z,7.07
2019-03-10T19:35:20.950Z,7.05
2019-03-10T19:37:50.136Z,7.10
2019-03-10T19:40:37.677Z,7.18
2019-03-10T19:43:25.042Z,7.13
2019-03-10T19:45:54.214Z,7.20
2019-03-10T19:48:23.518Z,7.27
2019-03-10T19:51:10.866Z,7.31
2019-03-10T19:53:41.352Z,7.34
2019-03-10T19:56:10.513Z,7.35
2019-03-10T19:58:39.737Z,7.44
2019-03-10T20:01:08.909Z,7.40
2019-03-10T20:03:38.105Z,7.36
2019-03-10T20:06:07.298Z,7.38
2019-03-10T20:08:36.471Z,7.33
2019-03-10T20:11:05.669Z,7.38
2019-03-10T20:13:34.837Z,7.44
2019-03-10T20:16:04.056Z,7.47
2019-03-10T20:18:33.234Z,7.47
2019-03-10T20:21:02.431Z,7.42
2019-03-10T20:23:31.598Z,7.47
2019-03-10T20:26:00.774Z,7.53
2019-03-10T20:28:29.982Z,7.49
2019-03-10T20:30:59.108Z,7.52
2019-03-10T20:33:28.287Z,7.48
2019-03-10T20:35:57.467Z,7.48
2019-03-10T20:38:28.148Z,7.42
2019-03-10T20:40:57.347Z,7.47
2019-03-10T20:43:26.516Z,7.48
2019-03-10T20:45:55.726Z,7.50
2019-03-10T20:48:24.893Z,7.49
2019-03-10T20:50:54.123Z,7.51
2019-03-10T20:53:23.301Z,7.58
2019-03-10T20:55:52.463Z,7.63
2019-03-10T20:58:21.659Z,7.60
2019-03-10T21:00:50.834Z,7.65
2019-03-10T21:03:20.001Z,7.61
2019-03-10T21:05:49.181Z,7.64
2019-03-10T21:08:18.383Z,7.52
2019-03-10T21:10:47.579Z,7.59
2019-03-10T21:13:16.778Z,7.65
2019-03-10T21:15:45.958Z,7.59
2019-03-10T21:18:15.138Z,7.56
2019-03-10T21:20:44.340Z,7.56
2019-03-10T21:23:13.528Z,7.60
2019-03-10T21:25:42.708Z,7.67
2019-03-10T21:28:11.882Z,7.67
2019-03-10T21:30:41.081Z,7.71
2019-03-10T21:33:10.297Z,7.71
2019-03-10T21:35:39.482Z,7.71
2019-03-10T21:38:08.650Z,7.72
2019-03-10T21:40:55.964Z,7.70
2019-03-10T21:43:43.113Z,7.74
2019-03-10T21:46:12.272Z,7.80
2019-03-10T21:48:41.452Z,7.84
2019-03-10T21:51:10.701Z,7.83
2019-03-10T21:53:39.879Z,7.82
2019-03-10T21:56:09.048Z,7.79
2019-03-10T21:58:38.247Z,7.78
2019-03-10T22:01:07.423Z,7.79
2019-03-10T22:03:36.616Z,7.81
2019-03-10T22:06:05.855Z,7.80
2019-03-10T22:08:35.055Z,7.76
2019-03-10T22:11:04.342Z,7.77
2019-03-10T22:13:33.545Z,7.74
2019-03-10T22:16:02.734Z,7.69
2019-03-10T22:18:31.897Z,7.63
2019-03-10T22:21:01.098Z,7.64
2019-03-10T22:23:30.279Z,7.64
2019-03-10T22:25:59.451Z,7.70
2019-03-10T22:28:28.632Z,7.67
2019-03-10T22:30:57.828Z,7.68
2019-03-10T22:33:27.031Z,7.62
2019-03-10T22:35:56.206Z,7.47
2019-03-10T22:38:43.481Z,7.43
2019-03-10T22:41:12.659Z,7.37
2019-03-10T22:43:59.861Z,7.29
2019-03-10T22:46:29.040Z,7.19
2019-03-10T22:48:58.209Z,7.16
2019-03-10T22:51:27.386Z,7.05
2019-03-10T22:53:56.548Z,7.01
2019-03-10T22:56:25.734Z,6.99
2019-03-10T22:58:54.904Z,6.94
2019-03-10T23:01:24.126Z,6.98
2019-03-10T23:03:53.265Z,6.97
2019-03-10T23:06:22.445Z,6.92
2019-03-10T23:08:51.627Z,7.01
2019-03-10T23:11:20.813Z,6.99
2019-03-10T23:13:50.021Z,6.96
2019-03-10T23:16:19.181Z,6.78
2019-03-10T23:18:48.349Z,6.60
2019-03-10T23:21:17.526Z,6.61
2019-03-10T23:23:46.703Z,6.62
2019-03-10T23:26:15.901Z,6.58
2019-03-10T23:28:45.086Z,6.58
2019-03-10T23:31:14.249Z,6.56
2019-03-10T23:33:43.422Z,6.55
2019-03-10T23:36:12.595Z,6.60
2019-03-10T23:38:41.795Z,6.50
2019-03-10T23:41:10.966Z,6.53
2019-03-10T23:43:40.140Z,6.52
2019-03-10T23:46:09.310Z,6.64
2019-03-10T23:48:38.496Z,6.55
2019-03-10T23:51:07.711Z,6.72
2019-03-10T23:53:36.880Z,6.51
2019-03-10T23:56:06.190Z,6.62
2019-03-10T23:58:35.391Z,6.56
